Time;durP1;ratioP1;P1;durP2;ratioP2;P2;SDS_P1;SDS_P2;PMS_P1;PMS_P2;Temp;Humidity;BMP_temperature;BMP_pressure;BME280_temperature;BME280_humidity;BME280_pressure;Samples;Min_cycle;Max_cycle;Signal;HPM_P1;HPM_P2
2022/04/11 00:00:33;;;;;;;11.97;4.80;;;;;;;2.45;77.96;99207.33;1677071;85;21051;-40
2022/04/11 00:02:59;;;;;;;9.55;5.22;;;;;;;2.42;78.53;99202.23;1677102;85;21612;-39
2022/04/11 00:05:24;;;;;;;9.50;4.42;;;;;;;2.44;78.51;99206.09;1677114;85;21003;-39
2022/04/11 00:07:50;;;;;;;7.40;4.55;;;;;;;2.43;78.65;99207.81;1677037;85;21008;-37
2022/04/11 00:10:17;;;;;;;10.72;4.50;;;;;;;2.46;77.90;99206.91;1677053;85;20991;-42
2022/04/11 00:12:43;;;;;;;8.45;4.50;;;;;;;2.46;77.97;99206.45;1677002;85;21015;-39
2022/04/11 00:15:10;;;;;;;9.18;4.70;;;;;;;2.48;78.36;99211.16;1677054;85;21008;-39
2022/04/11 00:17:36;;;;;;;14.27;4.73;;;;;;;2.48;78.46;99208.57;1677346;85;21060;-36
2022/04/11 00:20:05;;;;;;;6.83;4.30;;;;;;;2.50;78.60;99208.54;1677338;85;21068;-37
2022/04/11 00:22:36;;;;;;;14.15;5.05;;;;;;;2.53;78.73;99212.37;1676783;85;21554;-39
2022/04/11 00:25:03;;;;;;;11.05;4.58;;;;;;;2.55;78.85;99211.00;1652614;85;21011;-40
2022/04/11 00:27:29;;;;;;;13.03;5.00;;;;;;;2.58;78.61;99206.59;1677168;85;21032;-36
2022/04/11 00:29:55;;;;;;;10.70;5.05;;;;;;;2.60;78.83;99216.52;1677102;85;21028;-38
2022/04/11 00:32:21;;;;;;;10.88;5.30;;;;;;;2.65;78.56;99212.50;1677022;85;21124;-39
2022/04/11 00:34:47;;;;;;;10.63;6.03;;;;;;;2.67;78.71;99221.11;1677021;85;21019;-37
2022/04/11 00:37:13;;;;;;;11.57;6.25;;;;;;;2.68;78.71;99217.63;1677035;85;21020;-37
2022/04/11 00:39:38;;;;;;;13.98;6.62;;;;;;;2.71;78.45;99224.05;1677034;85;21012;-39
2022/04/11 00:42:16;;;;;;;12.37;6.40;;;;;;;2.69;78.75;99221.49;1677030;85;21505;-37
2022/04/11 00:44:42;;;;;;;11.78;5.85;;;;;;;2.72;78.38;99221.01;1677139;85;21496;-38
2022/04/11 00:47:08;;;;;;;11.40;5.95;;;;;;;2.74;78.40;99218.77;1677039;85;21003;-39
2022/04/11 00:49:34;;;;;;;12.95;6.47;;;;;;;2.80;77.97;99232.05;1676989;85;21008;-39
2022/04/11 00:52:00;;;;;;;12.28;5.80;;;;;;;2.74;78.53;99234.34;1677030;85;20988;-39
2022/04/11 00:54:28;;;;;;;12.93;6.25;;;;;;;2.78;78.08;99235.97;1679099;85;21028;-36
2022/04/11 00:56:55;;;;;;;12.88;6.00;;;;;;;2.76;78.51;99236.45;1677063;85;20999;-37
2022/04/11 00:59:21;;;;;;;7.83;5.95;;;;;;;2.76;78.49;99233.86;1677145;85;21438;-38
2022/04/11 01:01:48;;;;;;;10.05;5.55;;;;;;;2.77;78.33;99243.83;1677080;85;21031;-37
2022/04/11 01:04:23;;;;;;;10.98;6.12;;;;;;;2.80;78.22;99243.30;1677317;85;21000;-39
2022/04/11 01:06:54;;;;;;;9.95;5.47;;;;;;;2.79;78.06;99249.38;1676997;85;21076;-38
2022/04/11 01:09:20;;;;;;;8.70;5.45;;;;;;;2.85;77.97;99253.11;1677033;85;21442;-39
2022/04/11 01:11:46;;;;;;;11.73;6.30;;;;;;;2.81;77.85;99246.75;1677091;85;20988;-39
2022/04/11 01:14:12;;;;;;;11.05;5.40;;;;;;;2.78;77.72;99258.50;1677055;85;21538;-39
2022/04/11 01:16:38;;;;;;;10.40;5.72;;;;;;;2.74;77.88;99249.08;1677172;85;21009;-39
2022/04/11 01:19:03;;;;;;;9.90;5.62;;;;;;;2.74;77.65;99260.31;1677014;85;20995;-35
2022/04/11 01:21:31;;;;;;;10.35;5.65;;;;;;;2.64;78.43;99249.30;1677006;85;20997;-40
2022/04/11 01:23:57;;;;;;;13.25;5.90;;;;;;;2.63;78.14;99250.18;1677113;85;21124;-36
2022/04/11 01:26:25;;;;;;;8.43;5.90;;;;;;;2.62;77.56;99247.62;1677280;85;21007;-36
2022/04/11 01:28:53;;;;;;;8.98;5.72;;;;;;;2.56;78.44;99257.70;1676973;85;21481;-37
2022/04/11 01:31:18;;;;;;;10.23;5.65;;;;;;;2.52;78.64;99252.64;1677146;85;21000;-39
2022/04/11 01:33:44;;;;;;;9.73;5.50;;;;;;;2.47;78.76;99251.42;1676965;85;21065;-39
2022/04/11 01:36:10;;;;;;;10.75;5.20;;;;;;;2.44;79.20;99251.06;1677009;85;21528;-42
2022/04/11 01:38:35;;;;;;;11.12;5.53;;;;;;;2.33;79.68;99249.59;1677069;85;21035;-38
2022/04/11 01:41:01;;;;;;;12.80;6.00;;;;;;;2.40;78.76;99248.56;1677002;85;21032;-39
2022/04/11 01:43:27;;;;;;;12.33;5.40;;;;;;;2.39;78.74;99255.50;1676999;85;21020;-36
2022/04/11 01:45:53;;;;;;;12.03;6.58;;;;;;;2.36;79.34;99253.42;1677000;85;20999;-39
2022/04/11 01:48:19;;;;;;;36.65;16.37;;;;;;;2.36;79.43;99256.86;1676960;85;20976;-40
2022/04/11 01:50:45;;;;;;;12.65;7.70;;;;;;;2.34;79.35;99251.31;1676983;85;21047;-39
2022/04/11 01:53:18;;;;;;;12.43;6.25;;;;;;;2.37;79.02;99259.03;1676957;85;21196;-35
2022/04/11 01:55:44;;;;;;;15.00;6.83;;;;;;;2.35;79.29;99255.17;1676956;85;20988;-40
2022/04/11 01:58:11;;;;;;;18.60;7.25;;;;;;;2.36;78.95;99259.45;1677017;85;21461;-38
2022/04/11 02:00:38;;;;;;;10.00;5.72;;;;;;;2.30;79.15;99263.05;1677123;85;20999;-40
2022/04/11 02:03:06;;;;;;;15.18;6.37;;;;;;;2.25;80.27;99262.73;1677117;85;21008;-38
2022/04/11 02:05:33;;;;;;;13.95;6.62;;;;;;;2.26;79.57;99261.41;1676961;85;21489;-38
2022/04/11 02:07:59;;;;;;;11.55;6.08;;;;;;;2.24;79.80;99263.19;1676943;85;21031;-37
2022/04/11 02:10:25;;;;;;;26.33;10.88;;;;;;;2.27;79.71;99267.02;1676949;85;20980;-39
2022/04/11 02:12:52;;;;;;;14.78;8.00;;;;;;;2.25;79.03;99263.58;1676997;85;21048;-38
2022/04/11 02:15:18;;;;;;;16.93;7.75;;;;;;;2.23;79.55;99267.95;1677124;85;21004;-38
2022/04/11 02:17:48;;;;;;;13.15;6.80;;;;;;;2.24;79.84;99276.16;1676934;85;21031;-39
2022/04/11 02:20:14;;;;;;;14.15;6.03;;;;;;;2.25;79.68;99277.85;1677039;85;20999;-40
2022/04/11 02:22:49;;;;;;;18.15;9.30;;;;;;;2.26;79.48;99274.39;1676965;85;21120;-39
2022/04/11 02:25:17;;;;;;;14.40;7.30;;;;;;;2.23;79.79;99275.74;1676972;85;21011;-38
2022/04/11 02:27:44;;;;;;;15.15;6.58;;;;;;;2.25;80.04;99277.85;1676993;85;20984;-37
2022/04/11 02:30:12;;;;;;;12.13;7.05;;;;;;;2.26;80.03;99280.88;1677181;85;21000;-37
2022/04/11 02:32:38;;;;;;;13.03;6.97;;;;;;;2.25;80.62;99279.16;1676754;85;21063;-38
2022/04/11 02:35:07;;;;;;;10.58;7.10;;;;;;;2.24;80.56;99280.05;1676995;85;20977;-39
2022/04/11 02:37:33;;;;;;;18.80;7.65;;;;;;;2.31;80.54;99280.79;1676087;85;21573;-39
2022/04/11 02:40:00;;;;;;;18.30;8.18;;;;;;;2.29;80.16;99286.00;1677131;85;20988;-40
2022/04/11 02:43:21;;;;;;;13.45;7.60;;;;;;;2.36;79.88;99280.67;1800937;79;22999;-40
2022/04/11 02:45:46;;;;;;;16.77;6.95;;;;;;;2.33;79.86;99280.30;1761971;80;21018;-39
2022/04/11 02:48:12;;;;;;;13.90;7.22;;;;;;;2.28;80.39;99281.69;1761959;81;21030;-39
2022/04/11 02:50:38;;;;;;;14.75;7.50;;;;;;;2.26;80.11;99280.88;1761860;81;20978;-37
2022/04/11 02:53:04;;;;;;;14.10;6.60;;;;;;;2.22;80.52;99284.43;1761845;81;20991;-40
2022/04/11 02:55:30;;;;;;;14.65;6.90;;;;;;;2.18;80.65;99278.03;1761909;80;21030;-40
2022/04/11 02:57:56;;;;;;;14.05;6.67;;;;;;;2.15;81.05;99284.14;1761850;81;21055;-40
2022/04/11 03:00:22;;;;;;;14.33;7.10;;;;;;;2.20;80.39;99286.20;1761790;80;21007;-41
2022/04/11 03:02:47;;;;;;;14.50;6.50;;;;;;;2.21;79.90;99281.41;1761810;81;20963;-41
2022/04/11 03:05:13;;;;;;;14.25;6.55;;;;;;;2.22;80.65;99287.45;1761833;81;21475;-41
2022/04/11 03:07:39;;;;;;;17.42;6.42;;;;;;;2.20;80.94;99284.91;1761943;81;21022;-41
2022/04/11 03:10:07;;;;;;;14.40;7.37;;;;;;;2.25;80.01;99285.64;1761837;81;21511;-37
2022/04/11 03:12:36;;;;;;;13.65;6.22;;;;;;;2.24;80.10;99291.73;1761840;81;21002;-39
2022/04/11 03:15:03;;;;;;;10.95;6.55;;;;;;;2.21;80.99;99287.05;1761860;80;21003;-36
2022/04/11 03:17:29;;;;;;;12.90;6.12;;;;;;;2.22;80.89;99290.91;1761972;81;21051;-37
2022/04/11 03:19:55;;;;;;;14.93;5.97;;;;;;;2.24;80.75;99297.38;1761875;80;21488;-40
2022/04/11 03:22:21;;;;;;;10.58;6.05;;;;;;;2.24;80.43;99296.92;1761792;80;20991;-38
2022/04/11 03:24:47;;;;;;;16.32;6.58;;;;;;;2.26;80.40;99304.23;1761808;81;20983;-39
2022/04/11 03:27:12;;;;;;;14.60;6.33;;;;;;;2.23;80.00;99304.28;1761848;80;21023;-37
2022/04/11 03:29:38;;;;;;;13.85;5.92;;;;;;;2.20;80.71;99309.98;1761791;80;21035;-39
2022/04/11 03:32:05;;;;;;;13.03;6.22;;;;;;;2.17;80.68;99309.61;1761838;81;20995;-39
2022/04/11 03:34:31;;;;;;;13.70;6.60;;;;;;;2.18;81.28;99307.86;1762150;80;20995;-41
2022/04/11 03:36:57;;;;;;;16.67;6.50;;;;;;;2.22;80.37;99311.67;1761842;80;21022;-39
2022/04/11 03:39:22;;;;;;;14.05;6.75;;;;;;;2.19;81.26;99314.32;1761804;81;20991;-39
2022/04/11 03:41:48;;;;;;;15.60;7.40;;;;;;;2.21;81.20;99313.84;1758208;80;21012;-40
2022/04/11 03:44:14;;;;;;;13.03;7.53;;;;;;;2.24;81.41;99316.38;1748794;81;20987;-37
2022/04/11 03:46:40;;;;;;;15.95;7.53;;;;;;;2.26;80.82;99320.25;1748746;81;20960;-39
2022/04/11 03:49:06;;;;;;;15.53;7.55;;;;;;;2.28;80.66;99316.72;1748869;81;20984;-38
2022/04/11 03:51:33;;;;;;;12.97;7.10;;;;;;;2.31;80.94;99314.52;1748978;81;21019;-38
2022/04/11 03:53:59;;;;;;;12.00;5.80;;;;;;;2.31;80.83;99309.33;1748327;81;21031;-38
2022/04/11 03:56:25;;;;;;;13.68;6.10;;;;;;;2.31;80.77;99314.52;1748205;81;21000;-40
2022/04/11 03:58:50;;;;;;;17.90;6.42;;;;;;;2.30;80.06;99320.13;1748137;82;20969;-40
2022/04/11 04:01:16;;;;;;;14.60;7.33;;;;;;;2.32;80.78;99314.07;1748417;81;20988;-37
2022/04/11 04:03:42;;;;;;;9.55;5.87;;;;;;;2.34;80.80;99321.38;1748178;81;20988;-38
2022/04/11 04:06:08;;;;;;;10.72;5.85;;;;;;;2.41;80.51;99317.77;1748288;81;21031;-38
2022/04/11 04:08:34;;;;;;;16.95;6.87;;;;;;;2.46;80.38;99324.56;1737651;82;21516;-37
2022/04/11 04:11:00;;;;;;;10.43;5.78;;;;;;;2.46;80.51;99327.61;1748284;81;20999;-40
2022/04/11 04:13:26;;;;;;;13.90;6.62;;;;;;;2.45;80.59;99329.78;1748278;81;20991;-39
2022/04/11 04:15:52;;;;;;;13.03;5.90;;;;;;;2.47;80.56;99339.68;1748230;81;20999;-39
2022/04/11 04:18:18;;;;;;;18.25;6.47;;;;;;;2.47;80.59;99337.96;1748189;81;20995;-39
2022/04/11 04:20:43;;;;;;;16.02;6.53;;;;;;;2.50;80.64;99342.22;1748165;81;20991;-40
2022/04/11 04:23:09;;;;;;;11.55;6.15;;;;;;;2.55;80.03;99342.98;1748187;81;21508;-39
2022/04/11 04:25:36;;;;;;;12.10;6.22;;;;;;;2.56;79.78;99339.48;1748298;81;21531;-36
2022/04/11 04:28:03;;;;;;;9.53;5.83;;;;;;;2.49;79.95;99334.88;1748361;81;20991;-39
2022/04/11 04:30:29;;;;;;;13.80;6.47;;;;;;;2.49;79.99;99340.50;1748349;81;21022;-40
2022/04/11 04:32:59;;;;;;;10.43;5.83;;;;;;;2.49;80.05;99341.38;1748229;81;21335;-37
2022/04/11 04:35:27;;;;;;;9.78;6.22;;;;;;;2.47;79.96;99342.27;1748333;81;21575;-40
2022/04/11 04:37:53;;;;;;;16.90;6.42;;;;;;;2.39;80.39;99346.34;1748415;81;20987;-39
2022/04/11 04:40:19;;;;;;;16.20;6.45;;;;;;;2.40;80.58;99349.78;1748151;82;20991;-41
2022/04/11 04:42:45;;;;;;;12.07;6.60;;;;;;;2.42;80.21;99352.77;1748276;80;20989;-37
2022/04/11 04:45:12;;;;;;;18.57;6.87;;;;;;;2.47;79.57;99350.94;1748264;81;21483;-37
2022/04/11 04:47:39;;;;;;;21.33;6.55;;;;;;;2.39;79.94;99351.98;1748262;81;20995;-39
2022/04/11 04:50:07;;;;;;;19.00;8.13;;;;;;;2.32;80.70;99360.78;1748418;81;20984;-39
2022/04/11 04:52:32;;;;;;;16.93;7.87;;;;;;;2.31;80.11;99362.53;1748339;81;21023;-40
2022/04/11 04:54:58;;;;;;;15.35;7.10;;;;;;;2.26;80.28;99366.50;1748220;81;20968;-41
2022/04/11 04:57:25;;;;;;;19.52;6.72;;;;;;;2.25;79.82;99366.08;1748323;81;21468;-39
2022/04/11 04:59:50;;;;;;;11.15;6.87;;;;;;;2.21;80.28;99370.08;1748460;82;20991;-38
2022/04/11 05:02:16;;;;;;;12.33;6.90;;;;;;;2.19;80.51;99366.66;1748201;81;21461;-39
2022/04/11 05:04:42;;;;;;;12.70;6.15;;;;;;;2.17;80.05;99372.33;1748121;81;20972;-39
2022/04/11 05:07:08;;;;;;;18.80;6.83;;;;;;;2.16;80.19;99370.16;1748182;81;20992;-38
2022/04/11 05:09:33;;;;;;;19.57;6.30;;;;;;;2.15;80.88;99368.88;1748078;81;21035;-37
2022/04/11 05:11:59;;;;;;;13.72;6.40;;;;;;;2.18;80.14;99369.67;1748172;81;20999;-39
2022/04/11 05:14:25;;;;;;;18.23;6.53;;;;;;;2.15;80.32;99374.95;1748218;81;20984;-39
2022/04/11 05:16:51;;;;;;;15.40;6.53;;;;;;;2.14;80.92;99374.52;1748169;81;21027;-40
2022/04/11 05:19:17;;;;;;;14.00;7.05;;;;;;;2.18;80.42;99372.27;1748392;81;21508;-40
2022/04/11 05:21:43;;;;;;;15.48;6.72;;;;;;;2.19;80.44;99371.41;1748175;81;20960;-40
2022/04/11 05:24:09;;;;;;;12.98;6.58;;;;;;;2.21;80.59;99381.75;1748050;81;21019;-42
2022/04/11 05:26:34;;;;;;;12.45;6.75;;;;;;;2.22;80.22;99375.23;1748121;81;20995;-37
2022/04/11 05:29:00;;;;;;;12.60;7.05;;;;;;;2.23;79.93;99377.38;1748180;81;21488;-41
2022/04/11 05:31:26;;;;;;;16.23;6.95;;;;;;;2.24;80.60;99387.73;1748128;82;20995;-38
2022/04/11 05:33:51;;;;;;;13.83;7.08;;;;;;;2.27;80.11;99383.80;1748113;81;20956;-40
2022/04/11 05:36:17;;;;;;;14.07;7.85;;;;;;;2.28;80.70;99377.70;1748103;81;20996;-37
2022/04/11 05:38:43;;;;;;;18.20;7.70;;;;;;;2.23;81.34;99378.23;1748092;81;20996;-38
2022/04/11 05:41:09;;;;;;;18.80;8.40;;;;;;;2.41;80.67;99383.49;1748196;81;21031;-38
2022/04/11 05:43:34;;;;;;;17.73;7.95;;;;;;;2.52;80.16;99379.38;1758533;80;21070;-40
2022/04/11 05:46:01;;;;;;;15.58;7.72;;;;;;;2.66;80.36;99379.09;1761751;80;20959;-39
2022/04/11 05:48:32;;;;;;;15.45;7.80;;;;;;;2.83;79.42;99387.35;1761591;80;20985;-40
2022/04/11 05:51:01;;;;;;;14.18;7.12;;;;;;;2.86;79.74;99386.00;1761524;81;20991;-41
2022/04/11 05:53:27;;;;;;;15.18;7.10;;;;;;;3.04;79.41;99389.92;1761400;80;21026;-39
2022/04/11 05:55:53;;;;;;;12.85;7.72;;;;;;;3.12;78.64;99388.89;1761444;80;20991;-39
2022/04/11 05:58:19;;;;;;;15.28;7.25;;;;;;;3.22;78.48;99383.87;1761497;81;20979;-41
2022/04/11 06:00:44;;;;;;;13.18;6.75;;;;;;;3.17;78.23;99386.59;1761470;81;21511;-39
2022/04/11 06:03:10;;;;;;;9.73;6.80;;;;;;;3.14;78.46;99385.81;1761549;81;20992;-38
2022/04/11 06:05:37;;;;;;;13.72;6.85;;;;;;;3.22;78.02;99393.84;1761479;81;20996;-40
2022/04/11 06:08:03;;;;;;;13.40;7.55;;;;;;;3.25;77.82;99394.20;1761652;81;21047;-37
2022/04/11 06:10:29;;;;;;;15.13;7.22;;;;;;;3.34;77.81;99391.37;1761456;81;20991;-41
2022/04/11 06:12:55;;;;;;;19.25;7.70;;;;;;;3.45;77.45;99395.86;1761529;81;20991;-42
2022/04/11 06:15:21;;;;;;;14.20;7.45;;;;;;;3.50;76.94;99388.42;1761430;81;21034;-40
2022/04/11 06:17:46;;;;;;;16.37;7.50;;;;;;;3.49;77.16;99394.50;1761513;81;21035;-38
2022/04/11 06:20:12;;;;;;;13.40;6.58;;;;;;;3.52;77.41;99399.63;1761548;81;21448;-42
2022/04/11 06:22:45;;;;;;;14.47;6.78;;;;;;;3.51;77.37;99397.91;1761430;81;20955;-39
2022/04/11 06:25:08;;;;;;;13.55;6.70;;;;;;;3.53;77.56;99397.00;1760406;81;21468;-40
2022/04/11 06:27:36;;;;;;;14.78;6.67;;;;;;;3.58;76.84;99401.61;1761581;80;21472;-39
2022/04/11 06:30:04;;;;;;;15.38;7.33;;;;;;;3.56;76.74;99405.16;1761463;81;21019;-39
2022/04/11 06:32:32;;;;;;;;;;;;;;;3.61;77.07;99404.60;1764066;81;20975;-39
2022/04/11 06:34:59;;;;;;;13.30;7.50;;;;;;;3.63;76.96;99403.66;1761388;81;20104;-38
2022/04/11 06:37:25;;;;;;;19.98;8.10;;;;;;;3.67;76.48;99402.29;1761570;81;20951;-41
2022/04/11 06:39:52;;;;;;;26.42;9.75;;;;;;;3.65;76.28;99401.86;1761417;81;21357;-39
2022/04/11 06:42:18;;;;;;;20.25;9.53;;;;;;;3.66;76.28;99405.34;1759507;81;21529;-41
2022/04/11 06:44:44;;;;;;;18.80;9.25;;;;;;;3.71;76.88;99398.70;1748178;81;21497;-39
2022/04/11 06:47:10;;;;;;;24.18;11.22;;;;;;;3.75;76.46;99403.81;1748079;81;20996;-40
2022/04/11 06:49:37;;;;;;;20.75;8.08;;;;;;;3.76;76.24;99409.40;1748124;81;21023;-43
2022/04/11 06:52:04;;;;;;;24.53;10.23;;;;;;;3.88;75.88;99410.84;1748355;82;20995;-41
2022/04/11 06:54:30;;;;;;;;;;;;;;;3.85;76.05;99414.81;1750651;82;21023;-38
2022/04/11 06:56:57;;;;;;;18.92;10.08;;;;;;;3.93;76.16;99412.89;1748067;82;20137;-38
2022/04/11 06:59:23;;;;;;;19.85;9.28;;;;;;;4.00;75.79;99420.06;1748026;82;21003;-39
2022/04/11 07:01:52;;;;;;;20.20;8.55;;;;;;;3.95;75.70;99418.05;1748063;81;20957;-40
2022/04/11 07:04:18;;;;;;;14.70;8.83;;;;;;;3.94;75.45;99412.43;1748071;81;20952;-40
2022/04/11 07:06:44;;;;;;;19.77;9.45;;;;;;;3.97;75.10;99424.91;1737888;82;21572;-40
2022/04/11 07:09:10;;;;;;;26.33;13.75;;;;;;;4.08;75.02;99424.63;1748168;81;20964;-39
2022/04/11 07:11:36;;;;;;;22.77;11.40;;;;;;;4.10;74.77;99424.14;1748135;81;21027;-42
2022/04/11 07:14:02;;;;;;;24.90;9.30;;;;;;;4.21;74.36;99423.39;1748032;81;20992;-39
2022/04/11 07:16:28;;;;;;;18.50;9.18;;;;;;;4.33;74.18;99426.55;1748071;81;20995;-38
2022/04/11 07:18:53;;;;;;;10.38;7.05;;;;;;;4.47;74.24;99429.63;1747995;81;21023;-37
2022/04/11 07:21:19;;;;;;;12.82;6.30;;;;;;;4.66;73.63;99429.98;1747997;81;20987;-41
2022/04/11 07:23:45;;;;;;;11.05;6.62;;;;;;;4.86;72.41;99433.30;1748143;81;20964;-39
2022/04/11 07:26:11;;;;;;;15.83;6.35;;;;;;;4.87;72.25;99429.77;1748038;81;21635;-40
2022/04/11 07:28:37;;;;;;;11.85;6.35;;;;;;;5.06;71.95;99438.34;1748172;81;21514;-41
2022/04/11 07:31:03;;;;;;;16.37;7.80;;;;;;;4.97;70.54;99440.34;1748254;81;21504;-37
2022/04/11 07:33:28;;;;;;;13.90;8.65;;;;;;;4.99;70.24;99431.18;1748243;81;21027;-41
2022/04/11 07:35:54;;;;;;;10.60;7.25;;;;;;;5.03;70.34;99437.16;1748185;81;20968;-40
2022/04/11 07:38:20;;;;;;;10.65;5.75;;;;;;;5.11;70.22;99442.97;1748185;81;20999;-40
2022/04/11 07:40:47;;;;;;;9.15;5.12;;;;;;;5.12;69.37;99438.17;1748182;81;21018;-40
2022/04/11 07:43:14;;;;;;;12.17;5.27;;;;;;;5.06;68.65;99440.95;1748371;81;21536;-40
2022/04/11 07:45:42;;;;;;;14.07;6.03;;;;;;;5.08;68.90;99441.32;1748262;81;21468;-40
2022/04/11 07:48:08;;;;;;;13.72;6.67;;;;;;;5.20;69.33;99442.69;1745617;80;21034;-38
2022/04/11 07:50:34;;;;;;;8.68;5.17;;;;;;;5.13;68.05;99446.38;1717351;82;20982;-41
2022/04/11 07:52:59;;;;;;;11.48;5.97;;;;;;;5.14;68.40;99448.09;1720092;83;21130;-39
2022/04/11 07:55:26;;;;;;;10.32;6.20;;;;;;;5.17;68.42;99451.47;1698272;84;21039;-39
2022/04/11 07:57:53;;;;;;;10.65;5.10;;;;;;;5.32;68.47;99450.13;1698438;84;21051;-39
2022/04/11 08:00:24;;;;;;;16.37;6.67;;;;;;;5.44;68.07;99457.16;1698860;84;21059;-40
2022/04/11 08:02:53;;;;;;;10.32;6.28;;;;;;;5.48;67.64;99450.51;1698989;83;20994;-39
2022/04/11 08:05:20;;;;;;;10.35;5.30;;;;;;;5.54;67.42;99448.16;1702426;84;21074;-39
2022/04/11 08:07:48;;;;;;;10.63;4.43;;;;;;;5.55;66.46;99454.63;1736534;81;21031;-37
2022/04/11 08:10:16;;;;;;;9.05;4.25;;;;;;;5.52;65.81;99450.80;1726657;83;21070;-39
2022/04/11 08:12:55;;;;;;;10.00;5.62;;;;;;;5.65;66.18;99457.78;1737620;82;20998;-39
2022/04/11 08:15:22;;;;;;;10.80;5.45;;;;;;;5.71;66.15;99452.38;1690747;84;21157;-40
2022/04/11 08:17:48;;;;;;;11.20;6.40;;;;;;;5.80;66.37;99455.58;1699090;83;21056;-38
2022/04/11 08:20:14;;;;;;;15.85;6.10;;;;;;;5.92;66.08;99450.80;1698897;84;21015;-39
2022/04/11 08:22:40;;;;;;;10.58;5.62;;;;;;;6.00;65.96;99455.78;1698894;84;21482;-39
2022/04/11 08:25:08;;;;;;;10.08;6.35;;;;;;;6.07;65.08;99466.42;1697983;84;21489;-43
2022/04/11 08:27:35;;;;;;;8.50;4.78;;;;;;;6.18;64.64;99462.14;1698795;84;21020;-39
2022/04/11 08:30:04;;;;;;;20.73;7.23;;;;;;;6.54;64.46;99465.21;1698721;84;21019;-37
2022/04/11 08:32:48;;;;;;;14.13;6.83;;;;;;;6.48;64.15;99460.22;1696633;83;21044;-38
2022/04/11 08:35:17;;;;;;;10.93;5.10;;;;;;;6.48;63.93;99465.91;1698590;84;21513;-38
2022/04/11 08:37:43;;;;;;;12.35;5.08;;;;;;;6.43;64.04;99463.44;1698806;84;21012;-37
2022/04/11 08:40:21;;;;;;;12.07;5.78;;;;;;;6.29;63.39;99465.69;1698804;84;21509;-38
2022/04/11 08:42:51;;;;;;;8.85;4.15;;;;;;;6.28;63.20;99466.61;1698848;82;21016;-36
2022/04/11 08:45:22;;;;;;;12.55;4.97;;;;;;;6.13;62.53;99465.36;1698567;84;21039;-37
2022/04/11 08:47:50;;;;;;;8.73;5.33;;;;;;;6.05;62.82;99469.55;1698849;84;21023;-39
2022/04/11 08:50:17;;;;;;;9.25;5.08;;;;;;;5.85;63.33;99470.17;1699054;84;21020;-36
2022/04/11 08:52:43;;;;;;;10.00;4.87;;;;;;;5.83;64.03;99468.53;1698789;84;21036;-38
2022/04/11 08:55:11;;;;;;;14.23;6.62;;;;;;;5.55;65.31;99461.61;1698955;84;21564;-39
2022/04/11 08:57:37;;;;;;;11.35;6.90;;;;;;;5.59;65.97;99477.56;1698799;84;21505;-37
2022/04/11 09:00:15;;;;;;;18.33;8.50;;;;;;;5.53;66.44;99472.52;1699155;84;21046;-37
2022/04/11 09:02:43;;;;;;;19.75;10.13;;;;;;;5.47;67.82;99470.11;1699000;84;21048;-39
2022/04/11 09:05:10;;;;;;;16.17;9.70;;;;;;;5.43;68.41;99460.23;1712764;83;21034;-40
2022/04/11 09:07:53;;;;;;;16.20;10.63;;;;;;;5.48;69.72;99465.31;1721084;82;21003;-38
2022/04/11 09:10:25;;;;;;;13.95;9.35;;;;;;;5.62;69.33;99464.42;1720961;83;21516;-38
2022/04/11 09:12:54;;;;;;;10.82;8.65;;;;;;;5.76;68.94;99464.80;1720944;82;21043;-38
2022/04/11 09:15:23;;;;;;;10.85;7.58;;;;;;;5.95;69.36;99464.22;1720876;82;21041;-39
2022/04/11 09:17:50;;;;;;;9.80;7.42;;;;;;;6.18;68.17;99463.45;1720720;83;20971;-40
2022/04/11 09:20:21;;;;;;;13.90;8.23;;;;;;;6.34;67.82;99462.00;1721049;83;21508;-39
2022/04/11 09:22:48;;;;;;;15.18;7.87;;;;;;;6.41;66.89;99470.48;1720754;83;21007;-38
2022/04/11 09:25:18;;;;;;;8.00;5.50;;;;;;;6.58;67.83;99462.50;1720862;83;20991;-38
2022/04/11 09:27:46;;;;;;;9.48;4.33;;;;;;;6.92;65.50;99462.95;1720704;83;21042;-39
2022/04/11 09:30:27;;;;;;;5.67;3.45;;;;;;;7.41;63.93;99456.75;1720668;83;21042;-37
2022/04/11 09:33:01;;;;;;;5.50;3.45;;;;;;;7.71;62.78;99457.73;1719933;83;21102;-38
2022/04/11 09:35:35;;;;;;;6.12;4.33;;;;;;;8.21;60.89;99451.69;1719025;83;21051;-37
2022/04/11 09:38:21;;;;;;;10.15;3.90;;;;;;;8.43;58.78;99455.56;1718273;83;21579;-38
2022/04/11 09:40:53;;;;;;;6.92;4.37;;;;;;;8.69;59.52;99451.39;1719450;83;21071;-38
2022/04/11 09:43:31;;;;;;;14.90;6.75;;;;;;;8.26;56.25;99457.59;1719148;83;21597;-42
2022/04/11 09:46:00;;;;;;;11.45;6.42;;;;;;;8.06;57.97;99458.44;1719124;83;21571;-38
2022/04/11 09:48:35;;;;;;;10.25;6.00;;;;;;;7.81;58.80;99465.62;1720690;83;21075;-38
2022/04/11 09:51:05;;;;;;;9.63;6.30;;;;;;;7.80;59.70;99455.58;1720584;82;21517;-36
2022/04/11 09:53:34;;;;;;;12.35;5.95;;;;;;;7.95;59.61;99462.41;1717151;82;21019;-40
2022/04/11 09:56:09;;;;;;;11.38;6.33;;;;;;;7.80;59.47;99452.11;1714743;83;21034;-37
2022/04/11 09:58:38;;;;;;;6.30;5.08;;;;;;;7.51;59.28;99452.84;1689607;83;21008;-38
2022/04/11 10:01:06;;;;;;;8.60;6.15;;;;;;;7.38;59.00;99449.86;1720411;83;20991;-36
2022/04/11 10:03:32;;;;;;;12.03;7.33;;;;;;;7.17;59.73;99451.58;1720436;83;20999;-38
2022/04/11 10:05:58;;;;;;;10.38;7.53;;;;;;;6.91;60.88;99448.62;1720339;82;20976;-37
2022/04/11 10:08:27;;;;;;;14.38;6.75;;;;;;;6.90;61.68;99455.62;1720324;83;21022;-37
2022/04/11 10:10:55;;;;;;;11.35;8.10;;;;;;;6.86;62.21;99459.27;1720564;83;20979;-39
2022/04/11 10:13:21;;;;;;;15.88;9.68;;;;;;;6.82;62.74;99460.30;1720475;82;21399;-37
2022/04/11 10:15:49;;;;;;;14.18;9.55;;;;;;;6.88;63.46;99477.52;1720721;83;20988;-37
2022/04/11 10:18:27;;;;;;;15.35;8.98;;;;;;;6.83;63.58;99467.69;1720781;83;20987;-37
2022/04/11 10:21:01;;;;;;;10.35;6.60;;;;;;;6.90;62.89;99459.55;1720918;83;20968;-37
2022/04/11 10:23:32;;;;;;;14.58;7.35;;;;;;;6.95;63.23;99454.59;1720759;83;20971;-37
2022/04/11 10:26:00;;;;;;;13.60;8.50;;;;;;;7.19;64.05;99453.67;1720879;82;20964;-37
2022/04/11 10:28:28;;;;;;;8.55;6.45;;;;;;;7.46;63.00;99454.81;1692332;83;21000;-38
2022/04/11 10:31:10;;;;;;;10.10;5.00;;;;;;;7.52;62.71;99463.72;1720899;83;20995;-37
2022/04/11 10:33:52;;;;;;;10.82;6.45;;;;;;;7.45;61.70;99461.79;1720798;83;21018;-36
2022/04/11 10:36:39;;;;;;;9.65;5.75;;;;;;;7.50;61.87;99479.94;1720796;82;20991;-38
2022/04/11 10:39:19;;;;;;;5.87;4.55;;;;;;;7.48;61.11;99466.06;1721031;83;20992;-38
2022/04/11 10:42:06;;;;;;;10.30;4.80;;;;;;;7.52;61.10;99465.02;1720815;83;21000;-37
2022/04/11 10:44:56;;;;;;;9.68;5.00;;;;;;;7.61;60.25;99463.34;1704103;83;21007;-37
2022/04/11 10:47:27;;;;;;;8.18;5.37;;;;;;;7.77;59.66;99467.97;1695042;84;21122;-36
2022/04/11 10:50:01;;;;;;;13.08;6.25;;;;;;;7.67;59.66;99460.93;1694607;85;21512;-40
2022/04/11 10:52:37;;;;;;;9.60;5.45;;;;;;;7.66;59.34;99453.55;1694804;85;20971;-38
2022/04/11 10:55:17;;;;;;;9.05;5.72;;;;;;;7.62;59.93;99455.90;1694713;85;21030;-41
2022/04/11 10:57:56;;;;;;;10.50;5.83;;;;;;;7.62;59.85;99450.67;1692572;85;21556;-36
2022/04/11 11:00:31;;;;;;;5.35;4.85;;;;;;;7.70;59.73;99454.27;1688105;85;20996;-37
2022/04/11 11:03:02;;;;;;;6.92;5.85;;;;;;;7.85;59.82;99452.78;1689658;85;20988;-38
2022/04/11 11:05:32;;;;;;;9.48;6.37;;;;;;;7.85;60.25;99450.16;1698504;83;20967;-36
2022/04/11 11:08:13;;;;;;;6.37;5.30;;;;;;;7.76;59.87;99449.23;1726737;82;21006;-38
2022/04/11 11:10:50;;;;;;;10.30;6.58;;;;;;;7.76;59.71;99451.39;1722063;82;21021;-39
2022/04/11 11:13:37;;;;;;;12.43;8.80;;;;;;;7.69;60.14;99454.73;1665440;85;20982;-37
2022/04/11 11:16:12;;;;;;;11.78;7.42;;;;;;;7.80;60.35;99450.81;1663499;86;21018;-37
2022/04/11 11:18:52;;;;;;;8.20;5.62;;;;;;;8.14;61.35;99449.41;1681929;83;21050;-38
2022/04/11 11:21:37;;;;;;;8.18;4.25;;;;;;;8.77;60.79;99452.76;1698551;83;20967;-38
2022/04/11 11:24:10;;;;;;;6.08;3.80;;;;;;;9.98;55.75;99451.35;1725139;83;20983;-42
2022/04/11 11:27:00;;;;;;;3.95;2.77;;;;;;;10.48;54.12;99439.69;1724940;82;20971;-36
2022/04/11 11:29:33;;;;;;;19.20;12.98;;;;;;;11.57;51.02;99428.45;1711665;83;21044;-38
2022/04/11 11:32:04;;;;;;;4.37;3.55;;;;;;;13.41;48.88;99419.54;1715952;83;20997;-38
2022/04/11 11:34:33;;;;;;;5.55;3.30;;;;;;;13.65;45.41;99426.81;1718796;83;21005;-39
2022/04/11 11:37:06;;;;;;;3.12;2.55;;;;;;;13.15;45.88;99415.89;1718037;83;21514;-40
2022/04/11 11:39:38;;;;;;;5.67;2.98;;;;;;;12.86;47.88;99420.77;1718706;83;20981;-38